Time;durP1;ratioP1;P1;durP2;ratioP2;P2;SDS_P1;SDS_P2;PMS_P1;PMS_P2;Temp;Humidity;BMP_temperature;BMP_pressure;BME280_temperature;BME280_humidity;BME280_pressure;Samples;Min_cycle;Max_cycle;Signal;HPM_P1;HPM_P2
2022/04/22 00:00:17;;;;;;;4.75;2.40;;;;;;;12.62;52.51;101229.13;4824932;29;121816;-92
2022/04/22 00:02:44;;;;;;;5.68;2.20;;;;;;;12.84;52.83;101260.13;4820122;29;119933;-93
2022/04/22 00:05:16;;;;;;;4.30;2.38;;;;;;;13.05;52.17;101299.84;4795815;29;120878;-92
2022/04/22 00:07:41;;;;;;;4.47;2.47;;;;;;;12.85;52.31;101262.44;4820125;29;121958;-91
2022/04/22 00:10:11;;;;;;;4.30;2.47;;;;;;;12.86;52.61;101271.47;4816218;29;119104;-91
2022/04/22 00:12:43;;;;;;;5.43;2.40;;;;;;;12.59;52.32;101217.81;4794049;29;120859;-94
2022/04/22 00:15:09;;;;;;;4.30;2.47;;;;;;;12.63;52.25;101222.41;4794261;29;121885;-93
2022/04/22 00:17:38;;;;;;;4.85;2.75;;;;;;;12.84;52.75;101260.91;4809735;29;121392;-92
2022/04/22 00:20:04;;;;;;;5.95;3.20;;;;;;;12.70;53.01;101228.41;4825042;29;121226;-94
2022/04/22 00:22:30;;;;;;;4.90;2.70;;;;;;;13.05;52.52;101272.31;4810698;29;119263;-93
2022/04/22 00:24:59;;;;;;;4.30;2.63;;;;;;;12.86;52.75;101243.94;4795359;29;120578;-93
2022/04/22 00:27:25;;;;;;;4.18;2.65;;;;;;;12.82;52.82;101238.56;4814669;29;120015;-93
2022/04/22 00:29:50;;;;;;;5.70;2.47;;;;;;;12.76;53.23;101223.06;4830476;29;118542;-94
2022/04/22 00:32:16;;;;;;;6.45;2.97;;;;;;;12.85;53.03;101243.16;4829588;29;120569;-94
2022/04/22 00:34:42;;;;;;;7.07;3.00;;;;;;;12.86;53.07;101244.69;4799989;29;123220;-93
2022/04/22 00:37:08;;;;;;;5.43;2.72;;;;;;;12.65;53.40;101214.47;4818349;29;119289;-93
2022/04/22 00:39:42;;;;;;;6.82;3.20;;;;;;;12.69;53.24;101218.59;4814676;29;122119;-93
2022/04/22 00:42:12;;;;;;;6.85;2.80;;;;;;;12.60;53.11;101216.59;4831265;29;119257;-92
2022/04/22 00:44:38;;;;;;;6.88;2.97;;;;;;;12.79;53.08;101242.22;4814270;29;121219;-93
2022/04/22 00:47:04;;;;;;;7.00;2.80;;;;;;;12.67;53.26;101221.03;4829585;29;119706;-93
2022/04/22 00:49:38;;;;;;;4.97;2.63;;;;;;;12.95;52.76;101268.75;4815098;29;119181;-93
2022/04/22 00:52:08;;;;;;;3.90;2.67;;;;;;;12.94;52.35;101263.69;4830952;29;119915;-93
2022/04/22 00:54:36;;;;;;;6.90;2.75;;;;;;;12.77;53.12;101236.38;4814833;29;122171;-93
2022/04/22 00:57:05;;;;;;;5.70;2.80;;;;;;;12.95;52.99;101267.97;4815217;29;118891;-93
2022/04/22 00:59:33;;;;;;;6.55;2.67;;;;;;;12.63;52.85;101217.66;4794723;29;120735;-93
2022/04/22 01:01:59;;;;;;;5.55;3.03;;;;;;;12.94;53.52;101260.94;4812734;29;119292;-94
2022/04/22 01:10:11;;;;;;;;;;;;;;;;;;;;;
2022/04/22 01:12:40;;;;;;;6.10;3.05;;;;;;;12.71;53.42;101221.66;4813873;29;121327;-92
2022/04/22 01:15:12;;;;;;;4.55;2.83;;;;;;;12.61;53.31;101195.34;4823502;29;121529;-91
2022/04/22 01:17:40;;;;;;;4.70;2.78;;;;;;;12.82;54.12;101235.03;4828895;29;120343;-92
2022/04/22 01:20:12;;;;;;;8.80;3.25;;;;;;;12.97;53.75;101251.75;4797657;29;121619;-92
2022/04/22 01:22:51;;;;;;;5.38;3.20;;;;;;;12.56;53.52;101193.94;4817917;29;122078;-91
2022/04/22 01:25:20;;;;;;;5.15;2.97;;;;;;;12.73;53.60;101216.47;4813083;29;119418;-91
2022/04/22 01:27:55;;;;;;;7.25;2.95;;;;;;;12.67;53.92;101204.53;4812957;29;122179;-92
2022/04/22 01:30:30;;;;;;;7.05;3.33;;;;;;;12.89;54.02;101235.53;4813213;29;119053;-91
2022/04/22 01:32:57;;;;;;;9.27;3.42;;;;;;;12.47;53.86;101168.34;4829354;29;119997;-93
2022/04/22 01:35:30;;;;;;;10.65;3.25;;;;;;;12.55;54.21;101186.13;4798219;29;122233;-93
2022/04/22 01:37:56;;;;;;;8.37;3.67;;;;;;;12.84;53.58;101230.63;4813896;29;120638;-91
2022/04/22 01:40:21;;;;;;;7.10;2.92;;;;;;;12.84;53.71;101222.34;4814731;29;119988;-91
2022/04/22 01:42:47;;;;;;;6.30;3.03;;;;;;;12.56;53.71;101191.19;4818323;29;122234;-92
2022/04/22 01:45:16;;;;;;;4.38;2.80;;;;;;;12.51;53.77;101175.25;4799182;29;120727;-92
2022/04/22 01:47:43;;;;;;;9.00;3.53;;;;;;;12.84;53.47;101221.59;4827471;29;120450;-91
2022/04/22 01:50:11;;;;;;;6.85;3.67;;;;;;;12.54;53.65;101182.63;4829046;29;119072;-91
2022/04/22 01:52:41;;;;;;;5.93;3.25;;;;;;;12.78;53.74;101209.63;4831104;29;120711;-91
2022/04/22 01:55:10;;;;;;;6.50;3.27;;;;;;;12.84;53.65;101219.59;4813300;29;121839;-91
2022/04/22 01:57:36;;;;;;;5.53;2.95;;;;;;;12.43;54.01;101160.22;4808010;29;119954;-91
2022/04/22 02:00:03;;;;;;;6.90;3.25;;;;;;;12.34;54.02;101142.94;4824567;29;121931;-93
2022/04/22 02:02:41;;;;;;;5.53;2.92;;;;;;;12.39;54.27;101150.59;4810157;29;122181;-94
2022/04/22 02:05:13;;;;;;;7.75;3.20;;;;;;;12.83;54.29;101229.09;4813109;29;119351;-93
2022/04/22 02:07:55;;;;;;;7.65;3.47;;;;;;;12.49;54.72;101169.44;4828221;29;120550;-94
2022/04/22 02:10:21;;;;;;;7.10;3.80;;;;;;;12.57;55.02;101189.22;4799277;29;119359;-93
2022/04/22 02:12:53;;;;;;;9.85;3.50;;;;;;;12.48;55.15;101172.63;4829395;29;120291;-94
2022/04/22 02:15:21;;;;;;;5.13;3.10;;;;;;;12.80;55.33;101223.72;4813996;29;121923;-93
2022/04/22 02:17:54;;;;;;;9.40;3.70;;;;;;;12.30;55.00;101143.03;4797362;29;118549;-93
2022/04/22 02:20:30;;;;;;;7.63;3.90;;;;;;;12.76;55.31;101215.56;4820548;29;119335;-94
2022/04/22 02:22:57;;;;;;;6.32;3.25;;;;;;;12.43;55.02;101162.22;4814889;29;122236;-95
2022/04/22 02:25:23;;;;;;;8.05;3.72;;;;;;;12.75;55.33;101216.03;4813806;29;118906;-91
2022/04/22 02:30:40;;;;;;;8.02;3.90;;;;;;;12.66;55.60;101207.75;4829537;29;119057;-93
2022/04/22 02:33:09;;;;;;;5.82;3.85;;;;;;;12.64;55.85;101208.19;4793389;29;120011;-93
2022/04/22 02:35:38;;;;;;;6.95;3.67;;;;;;;12.60;55.84;101199.31;4812970;29;122108;-93
2022/04/22 02:38:10;;;;;;;6.80;3.60;;;;;;;12.55;55.68;101197.16;4812920;29;119184;-93
2022/04/22 02:46:18;;;;;;;;;;;;;;;12.51;55.58;101202.75;4805310;29;119926;-92
2022/04/22 02:48:44;;;;;;;7.57;3.60;;;;;;;12.30;55.75;101159.53;4787793;29;121584;-92
2022/04/22 02:51:12;;;;;;;6.65;3.55;;;;;;;12.56;55.21;101187.66;4837927;29;120911;-92
2022/04/22 02:53:41;;;;;;;6.10;3.75;;;;;;;12.50;55.49;101186.72;4812818;29;121090;-92
2022/04/22 02:56:07;;;;;;;7.40;3.67;;;;;;;12.12;55.58;101124.47;4823400;29;121589;-92
2022/04/22 02:58:36;;;;;;;5.93;3.42;;;;;;;12.53;55.42;101183.06;4813683;29;119053;-91
2022/04/22 03:01:04;;;;;;;4.78;3.35;;;;;;;12.54;55.27;101179.09;4834741;29;119432;-92
2022/04/22 03:03:35;;;;;;;6.93;3.53;;;;;;;12.05;55.06;101116.47;4811807;29;121689;-90
2022/04/22 03:06:04;;;;;;;5.75;3.70;;;;;;;12.23;55.21;101146.84;4814535;29;120342;-93
2022/04/22 03:08:55;;;;;;;6.07;3.58;;;;;;;12.50;54.94;101181.19;4831579;29;119451;-93
2022/04/22 03:11:23;;;;;;;9.18;4.00;;;;;;;12.32;54.98;101150.88;4816286;29;121369;-92
2022/04/22 03:13:52;;;;;;;5.40;3.97;;;;;;;12.04;54.75;101106.69;4821115;29;119150;-92
2022/04/22 03:16:26;;;;;;;7.55;3.80;;;;;;;11.97;55.26;101104.97;4817087;29;121774;-93
2022/04/22 03:18:54;;;;;;;9.35;4.35;;;;;;;11.96;55.33;101097.19;4818494;29;119140;-92
2022/04/22 03:21:20;;;;;;;6.45;4.03;;;;;;;12.38;55.34;101165.56;4802480;29;121325;-93
2022/04/22 03:23:53;;;;;;;5.80;3.85;;;;;;;11.89;55.24;101091.97;4832142;29;120444;-93
2022/04/22 03:26:21;;;;;;;6.65;3.85;;;;;;;11.95;55.30;101106.66;4817460;29;119163;-92
2022/04/22 03:28:52;;;;;;;8.90;3.88;;;;;;;12.04;55.53;101120.44;4801797;29;121699;-92
2022/04/22 03:31:41;;;;;;;6.35;4.10;;;;;;;12.31;55.36;101160.34;4816830;29;122910;-92
2022/04/22 03:34:07;;;;;;;8.32;4.65;;;;;;;12.00;55.18;101111.56;4832222;29;119515;-91
2022/04/22 03:36:34;;;;;;;6.13;4.00;;;;;;;11.88;55.53;101095.94;4804535;29;120487;-92
2022/04/22 03:39:09;;;;;;;6.00;4.03;;;;;;;11.85;55.40;101100.34;4816422;29;118441;-92
2022/04/22 03:41:38;;;;;;;6.17;4.13;;;;;;;11.80;55.42;101083.63;4832503;29;119546;-91
2022/04/22 03:44:06;;;;;;;6.10;4.25;;;;;;;11.96;55.58;101102.69;4832415;29;121166;-91
2022/04/22 03:46:34;;;;;;;5.95;3.92;;;;;;;12.07;55.37;101119.56;4816464;29;119107;-93
2022/04/22 03:49:00;;;;;;;7.68;4.53;;;;;;;11.78;55.46;101077.78;4817264;29;121256;-91
2022/04/22 03:51:30;;;;;;;7.97;4.35;;;;;;;11.72;55.68;101079.59;4800628;29;123128;-92
2022/04/22 03:53:57;;;;;;;6.30;4.30;;;;;;;11.98;55.87;101119.50;4833355;29;119417;-91
2022/04/22 03:59:11;;;;;;;;;;;;;;;12.17;55.80;101145.13;4832475;29;119333;-92
2022/04/22 04:01:36;;;;;;;7.03;4.68;;;;;;;12.18;55.97;101147.41;4817396;29;121596;-93
2022/04/22 04:04:21;;;;;;;8.48;4.57;;;;;;;12.18;56.38;101147.41;4800611;29;121326;-93
2022/04/22 04:06:50;;;;;;;9.07;4.18;;;;;;;12.18;56.72;101152.91;4816869;29;119331;-91
2022/04/22 04:17:36;;;;;;;6.72;4.47;;;;;;;12.17;56.50;101145.88;4831896;29;119669;-92
2022/04/22 04:25:38;;;;;;;7.72;4.53;;;;;;;12.19;56.68;101145.44;4825850;29;121455;-91
2022/04/22 04:28:05;;;;;;;7.50;4.50;;;;;;;12.14;56.54;101124.78;4808482;29;119258;-91
2022/04/22 04:30:31;;;;;;;10.13;4.80;;;;;;;11.89;56.54;101094.72;4791498;29;121597;-90
2022/04/22 04:32:57;;;;;;;6.78;4.68;;;;;;;12.06;56.38;101120.75;4798739;29;122880;-92
2022/04/22 04:35:23;;;;;;;9.68;4.88;;;;;;;12.08;56.82;101120.34;4797825;29;119449;-91
2022/04/22 04:37:52;;;;;;;7.35;4.90;;;;;;;11.82;56.30;101079.22;4806485;29;121850;-91
2022/04/22 04:40:21;;;;;;;8.57;5.13;;;;;;;12.05;56.36;101119.22;4788217;29;122257;-94
2022/04/22 04:42:46;;;;;;;6.80;4.65;;;;;;;12.24;56.40;101140.13;4795530;29;118450;-90
2022/04/22 04:45:13;;;;;;;8.30;5.05;;;;;;;12.25;56.23;101138.91;4786547;29;121950;-91
2022/04/22 04:47:41;;;;;;;9.80;5.03;;;;;;;12.13;56.49;101112.25;4814685;29;119449;-92
2022/04/22 04:50:14;;;;;;;6.65;4.53;;;;;;;12.11;56.31;101109.19;4783080;29;122262;-92
2022/04/22 04:52:40;;;;;;;8.65;4.63;;;;;;;12.14;55.78;101113.03;4829657;29;120105;-92
2022/04/22 04:55:18;;;;;;;7.25;4.13;;;;;;;12.16;55.64;101113.34;4847919;28;119482;-92
2022/04/22 04:57:49;;;;;;;8.05;4.60;;;;;;;12.04;55.66;101095.69;4839056;29;120090;-91
2022/04/22 05:00:29;;;;;;;6.55;4.18;;;;;;;11.82;55.49;101061.97;4836283;29;121770;-92
2022/04/22 05:03:05;;;;;;;6.65;4.03;;;;;;;12.07;55.59;101097.56;4791260;29;119824;-92
2022/04/22 05:06:21;;;;;;;5.85;3.85;;;;;;;12.31;55.08;101128.09;4816824;29;118888;-92
2022/04/22 05:08:55;;;;;;;6.63;4.15;;;;;;;12.40;54.91;101141.13;4801692;29;119212;-93
2022/04/22 05:11:27;;;;;;;6.25;3.88;;;;;;;12.29;54.49;101114.75;4810785;29;120921;-94
2022/04/22 05:13:53;;;;;;;7.68;3.92;;;;;;;12.08;54.20;101077.09;4798894;29;122496;-92
2022/04/22 05:16:21;;;;;;;10.52;4.38;;;;;;;12.03;54.04;101069.41;4799615;29;119657;-93
2022/04/22 05:18:56;;;;;;;7.88;3.50;;;;;;;12.45;54.17;101122.03;4820308;29;120541;-94
2022/04/22 05:21:25;;;;;;;8.77;3.90;;;;;;;12.48;54.24;101123.09;4811089;29;121445;-92
2022/04/22 05:23:58;;;;;;;5.40;3.65;;;;;;;12.22;53.88;101084.03;4819748;29;119455;-92
2022/04/22 05:26:26;;;;;;;6.90;3.60;;;;;;;12.53;54.00;101117.00;4815545;29;120560;-92
2022/04/22 05:28:54;;;;;;;6.82;4.18;;;;;;;12.15;53.96;101065.81;4788849;29;122359;-93
2022/04/22 05:34:07;;;;;;;;;;;;;;;12.62;53.62;101106.06;4819863;29;121903;-92
2022/04/22 05:36:33;;;;;;;8.30;3.70;;;;;;;12.65;53.22;101112.63;4815087;29;119199;-91
2022/04/22 05:38:59;;;;;;;7.55;3.40;;;;;;;12.63;52.82;101109.56;4828213;29;120210;-90
2022/04/22 05:41:25;;;;;;;5.70;2.95;;;;;;;12.68;52.74;101112.47;4797208;29;123171;-91
2022/04/22 05:43:54;;;;;;;5.22;3.50;;;;;;;12.69;52.62;101118.75;4809028;29;119186;-91
2022/04/22 05:46:19;;;;;;;4.07;3.25;;;;;;;12.48;52.54;101085.34;4825913;29;121082;-91
2022/04/22 05:48:45;;;;;;;5.68;3.20;;;;;;;12.47;52.47;101080.31;4809756;29;122749;-92
2022/04/22 05:51:11;;;;;;;4.53;3.20;;;;;;;12.55;52.57;101098.09;4814267;29;119368;-92
2022/04/22 05:53:44;;;;;;;4.63;3.25;;;;;;;12.68;52.36;101095.97;4831471;29;122617;-92
2022/04/22 05:56:13;;;;;;;5.85;3.10;;;;;;;12.79;51.82;101101.81;4846486;28;118403;-94
2022/04/22 05:58:47;;;;;;;6.47;2.88;;;;;;;12.82;51.66;101111.91;4814770;29;120741;-94
2022/04/22 06:01:16;;;;;;;4.55;3.10;;;;;;;12.82;51.41;101111.16;4826693;29;120498;-94
2022/04/22 06:03:41;;;;;;;4.75;2.95;;;;;;;12.37;51.59;101034.75;4829181;29;118789;-94
2022/04/22 06:06:20;;;;;;;5.68;3.25;;;;;;;12.60;51.66;101067.97;4828090;29;119258;-94
2022/04/22 06:11:33;;;;;;;6.50;3.13;;;;;;;12.81;51.85;101082.88;4821658;29;119017;-93
2022/04/22 06:14:02;;;;;;;7.43;2.90;;;;;;;12.81;51.25;101082.09;4819631;29;120270;-93
2022/04/22 06:16:39;;;;;;;3.70;2.80;;;;;;;13.08;51.92;101100.66;4807124;29;119096;-92
2022/04/22 06:19:07;;;;;;;4.20;2.88;;;;;;;12.85;51.55;101061.44;4809420;29;120577;-94
2022/04/22 06:21:33;;;;;;;5.78;3.10;;;;;;;13.13;51.14;101100.03;4810771;29;121902;-94
2022/04/22 06:24:03;;;;;;;5.95;3.15;;;;;;;13.14;51.14;101109.84;4806559;29;118480;-93
2022/04/22 06:26:29;;;;;;;4.10;2.58;;;;;;;12.88;51.23;101052.28;4799006;29;120976;-95
2022/04/22 06:29:05;;;;;;;5.75;2.92;;;;;;;13.19;51.07;101095.47;4794300;29;121399;-94
2022/04/22 06:31:57;;;;;;;3.88;2.60;;;;;;;12.95;51.54;101044.94;4823900;29;119378;-94
2022/04/22 06:34:23;;;;;;;3.80;2.95;;;;;;;13.20;51.56;101063.94;4816317;29;122057;-94
2022/04/22 06:36:53;;;;;;;4.50;2.88;;;;;;;13.41;50.97;101081.56;4824463;29;120222;-94
2022/04/22 06:39:24;;;;;;;5.15;2.72;;;;;;;13.46;50.80;101100.22;4802480;29;121874;-93
2022/04/22 06:47:17;;;;;;;4.90;2.92;;;;;;;13.27;50.62;101033.38;4812259;29;122012;-94
2022/04/22 06:49:47;;;;;;;6.47;3.17;;;;;;;13.20;50.01;101025.38;4798259;29;122852;-93
2022/04/22 06:52:14;;;;;;;6.32;3.20;;;;;;;13.35;49.73;101037.31;4796708;29;118643;-93
2022/04/22 06:54:51;;;;;;;4.63;2.60;;;;;;;13.68;49.57;101078.78;4783760;29;121943;-92
2022/04/22 06:57:22;;;;;;;3.88;3.08;;;;;;;13.17;49.37;101009.75;4797154;29;123072;-93
2022/04/22 06:59:50;;;;;;;5.20;2.63;;;;;;;13.25;49.20;101030.31;4795898;29;119916;-93
2022/04/22 07:02:28;;;;;;;6.25;3.00;;;;;;;13.14;49.72;101008.69;4797815;29;121699;-94
2022/04/22 07:04:54;;;;;;;5.45;2.70;;;;;;;13.32;49.79;101041.00;4812972;29;119093;-94
2022/04/22 07:07:24;;;;;;;4.32;2.80;;;;;;;13.62;49.09;101088.13;4828991;29;118748;-93
2022/04/22 07:09:52;;;;;;;4.97;2.90;;;;;;;13.62;49.35;101083.38;4812331;29;121379;-93
2022/04/22 07:12:19;;;;;;;5.28;2.90;;;;;;;13.16;49.20;101017.25;4811525;29;118943;-93
2022/04/22 07:14:48;;;;;;;6.28;2.80;;;;;;;13.23;49.26;101012.69;4796793;29;122603;-93
2022/04/22 07:17:13;;;;;;;4.95;2.80;;;;;;;13.71;49.39;101072.31;4794600;29;122751;-93
2022/04/22 07:19:53;;;;;;;3.55;2.67;;;;;;;13.42;49.65;101030.72;4816453;29;119143;-94
2022/04/22 07:22:19;;;;;;;4.60;2.55;;;;;;;13.72;49.59;101051.84;4794236;29;121871;-92
2022/04/22 07:24:44;;;;;;;6.32;2.97;;;;;;;13.78;49.43;101051.97;4778578;29;118539;-94
2022/04/22 07:27:10;;;;;;;6.32;3.00;;;;;;;14.02;49.71;101069.34;4822950;29;120363;-93
2022/04/22 07:29:42;;;;;;;6.63;2.90;;;;;;;13.84;49.65;101041.81;4794276;29;122117;-93
2022/04/22 07:32:13;;;;;;;4.40;2.90;;;;;;;13.99;48.74;101051.00;4812604;29;120383;-94
2022/04/22 07:34:39;;;;;;;4.95;3.00;;;;;;;14.19;48.91;101068.97;4806733;29;119311;-94
2022/04/22 07:37:11;;;;;;;7.35;2.83;;;;;;;13.76;49.20;101004.78;4814347;29;121482;-93
2022/04/22 07:39:43;;;;;;;4.72;2.80;;;;;;;14.32;49.80;101078.59;4808273;29;118605;-95
2022/04/22 07:42:15;;;;;;;5.22;2.83;;;;;;;13.96;49.73;101002.28;4817164;29;121393;-94
2022/04/22 07:47:47;;;;;;;4.80;3.10;;;;;;;14.61;48.59;101074.50;4809907;29;119716;-94
2022/04/22 07:50:19;;;;;;;4.57;2.80;;;;;;;14.16;47.80;101009.22;4794801;29;123381;-94
2022/04/22 07:52:53;;;;;;;6.05;3.17;;;;;;;14.17;48.02;101013.50;4810757;29;119294;-94
2022/04/22 07:55:22;;;;;;;6.78;3.20;;;;;;;14.72;47.98;101085.81;4796432;29;121039;-93
2022/04/22 07:57:51;;;;;;;7.18;2.85;;;;;;;14.82;49.42;101086.50;4809481;29;120942;-93
2022/04/22 08:00:23;;;;;;;4.75;2.75;;;;;;;14.86;47.83;101067.75;4794749;29;118512;-93
2022/04/22 08:02:49;;;;;;;5.85;3.00;;;;;;;14.93;47.63;101067.41;4800798;29;121187;-94
2022/04/22 08:05:24;;;;;;;5.15;2.92;;;;;;;14.83;47.66;101044.59;4812129;29;119189;-93
2022/04/22 08:07:54;;;;;;;4.60;2.75;;;;;;;14.98;48.64;101066.75;4813485;29;121092;-94
2022/04/22 08:10:27;;;;;;;3.63;2.80;;;;;;;15.10;48.42;101060.22;4795821;29;121453;-93
2022/04/22 08:13:32;;;;;;;6.05;3.20;;;;;;;15.44;48.33;101074.69;4790900;29;119085;-93
2022/04/22 08:16:03;;;;;;;5.15;3.05;;;;;;;15.35;48.28;101037.56;4794028;29;120462;-92
2022/04/22 08:18:29;;;;;;;8.50;3.50;;;;;;;15.67;46.22;101073.88;4803495;29;122156;-94
2022/04/22 08:20:57;;;;;;;7.25;2.95;;;;;;;15.50;46.49;101042.38;4812050;29;119205;-92
2022/04/22 08:23:23;;;;;;;6.20;3.10;;;;;;;15.48;46.57;101058.66;4789482;29;120875;-94
2022/04/22 08:25:49;;;;;;;5.18;3.20;;;;;;;15.33;47.91;101042.06;4798984;29;121952;-94
2022/04/22 08:28:15;;;;;;;5.95;3.15;;;;;;;15.58;46.84;101087.75;4799323;29;122233;-91
2022/04/22 08:30:41;;;;;;;6.82;3.50;;;;;;;15.53;47.57;101061.53;4814627;29;122360;-93
2022/04/22 08:33:06;;;;;;;5.47;3.00;;;;;;;15.32;47.98;101012.91;4822772;29;118666;-93
2022/04/22 08:35:35;;;;;;;4.95;3.10;;;;;;;15.33;46.50;101004.13;4819158;29;122149;-94
2022/04/22 08:38:03;;;;;;;5.75;3.70;;;;;;;15.54;47.89;101029.13;4813660;29;121885;-93
2022/04/22 08:40:31;;;;;;;5.47;3.10;;;;;;;15.49;47.87;101010.44;4830381;29;118653;-94
2022/04/22 08:43:01;;;;;;;5.70;3.20;;;;;;;15.98;48.08;101061.56;4791008;29;122542;-93
2022/04/22 08:45:27;;;;;;;6.00;3.50;;;;;;;16.08;47.86;101057.44;4814969;29;122383;-93
2022/04/22 08:51:12;;;;;;;5.50;3.30;;;;;;;16.17;47.04;101051.81;4812289;29;121982;-94
2022/04/22 08:54:45;;;;;;;5.40;3.45;;;;;;;16.43;46.47;101101.78;4806691;29;119141;-93
2022/04/22 08:57:33;;;;;;;5.15;3.20;;;;;;;16.32;45.43;101077.44;4817495;29;118868;-92
2022/04/22 09:00:12;;;;;;;7.57;3.08;;;;;;;16.22;45.44;101092.66;4809320;29;122789;-94
2022/04/22 09:02:44;;;;;;;4.97;3.40;;;;;;;16.15;45.66;101079.22;4808919;29;118614;-95
2022/04/22 09:05:16;;;;;;;6.57;3.60;;;;;;;15.78;45.26;101034.59;4798365;29;120837;-95
2022/04/22 09:08:01;;;;;;;6.97;3.50;;;;;;;15.50;46.55;101004.44;4798451;29;121470;-94
2022/04/22 09:10:30;;;;;;;5.93;3.22;;;;;;;15.44;46.65;101000.06;4795687;29;119106;-93
2022/04/22 09:13:09;;;;;;;10.52;3.60;;;;;;;15.94;45.90;101112.31;4803120;29;121269;-94
2022/04/22 09:15:45;;;;;;;6.03;3.28;;;;;;;15.49;45.93;101021.50;4798132;29;119517;-94
2022/04/22 09:22:03;;;;;;;6.38;3.53;;;;;;;15.42;45.78;101028.16;4812149;29;122248;-94
2022/04/22 09:24:29;;;;;;;7.20;3.70;;;;;;;15.31;45.91;101003.84;4830728;29;119057;-93
2022/04/22 09:27:06;;;;;;;11.57;4.13;;;;;;;15.32;46.06;101010.88;4815598;29;120480;-94
2022/04/22 09:30:09;;;;;;;4.88;3.30;;;;;;;15.20;45.73;100997.38;4798027;29;121544;-94
2022/04/22 09:33:03;;;;;;;11.13;3.88;;;;;;;15.68;46.33;101074.66;4795304;29;119865;-94
2022/04/22 09:42:38;;;;;;;6.88;3.80;;;;;;;15.65;46.23;101081.91;4823453;29;119481;-95
2022/04/22 09:44:39;;;;;;;6.28;3.55;;;;;;;15.99;47.67;101074.16;4819621;29;120508;-94
2022/04/22 09:47:56;;;;;;;10.13;4.07;;;;;;;15.76;46.54;101029.53;4816010;29;119140;-94
2022/04/22 09:50:53;;;;;;;7.05;3.83;;;;;;;15.85;46.50;101036.94;4811623;29;120947;-94
2022/04/22 10:05:28;;;;;;;9.55;4.18;;;;;;;15.67;47.65;101012.28;4760950;29;119305;-94
2022/04/22 10:08:21;;;;;;;10.85;5.03;;;;;;;15.80;47.05;101030.09;4829066;29;119306;-93
2022/04/22 10:11:13;;;;;;;10.15;4.90;;;;;;;15.62;47.14;101020.00;4788294;29;119886;-92
2022/04/22 10:15:05;;;;;;;9.00;4.93;;;;;;;15.96;47.82;101073.13;4824782;29;118669;-94
2022/04/22 10:17:44;;;;;;;8.88;4.88;;;;;;;15.85;48.10;101061.84;4793142;29;122012;-94
2022/04/22 10:23:06;;;;;;;13.07;4.75;;;;;;;15.83;47.70;101050.50;4833047;29;119177;-93
2022/04/22 10:26:06;;;;;;;7.38;4.43;;;;;;;15.69;48.28;101029.16;4819030;29;118834;-94
2022/04/22 10:28:35;;;;;;;7.30;4.15;;;;;;;15.74;48.76;101036.78;4828430;29;121009;-94
2022/04/22 10:31:29;;;;;;;10.02;4.78;;;;;;;15.82;47.96;101049.75;4831968;29;118451;-93
2022/04/22 10:34:26;;;;;;;10.75;5.20;;;;;;;15.97;48.93;101074.63;4810257;29;121972;-93
2022/04/22 10:36:56;;;;;;;11.40;4.72;;;;;;;16.03;49.30;101069.19;4799975;29;120548;-93
2022/04/22 10:39:37;;;;;;;13.35;5.20;;;;;;;15.56;48.64;100999.00;4828256;29;120216;-93
2022/04/22 10:42:19;;;;;;;7.82;4.90;;;;;;;15.51;48.58;100997.66;4827871;29;119849;-93
2022/04/22 10:48:27;;;;;;;10.63;5.28;;;;;;;15.60;49.84;101025.22;4827360;29;120048;-93
2022/04/22 10:51:07;;;;;;;11.77;5.13;;;;;;;15.84;49.14;101052.03;4819210;29;123529;-93
2022/04/22 10:53:46;;;;;;;7.78;4.70;;;;;;;15.65;48.91;100993.41;4805618;29;118828;-93
2022/04/22 10:56:33;;;;;;;15.25;5.47;;;;;;;16.12;48.46;101049.72;4820389;29;120801;-94
2022/04/22 10:59:21;;;;;;;11.30;5.80;;;;;;;16.15;48.42;101065.38;4800454;29;118886;-93
2022/04/22 11:02:58;;;;;;;13.63;5.97;;;;;;;15.73;49.29;101000.06;4832115;29;121061;-95
2022/04/22 11:09:00;;;;;;;8.82;4.63;;;;;;;16.15;49.89;101038.47;4725591;29;118840;-93
2022/04/22 11:11:41;;;;;;;11.18;5.60;;;;;;;16.09;49.33;101015.47;4711988;29;120907;-94
2022/04/22 11:14:18;;;;;;;10.70;5.50;;;;;;;15.94;49.09;100985.06;4721176;29;122337;-93
2022/04/22 11:16:55;;;;;;;10.95;5.90;;;;;;;16.32;48.35;101047.00;4736833;29;118668;-94
2022/04/22 11:19:34;;;;;;;10.95;5.88;;;;;;;16.07;48.93;101011.66;4756388;29;118668;-93
2022/04/22 11:22:07;;;;;;;12.23;5.55;;;;;;;16.36;49.04;101064.19;4728347;29;123052;-93
2022/04/22 11:25:24;;;;;;;8.65;5.55;;;;;;;15.93;48.78;101011.22;4739683;29;120015;-93
2022/04/22 11:32:26;;;;;;;14.15;6.07;;;;;;;16.14;49.48;101027.88;4632514;30;120127;-94
2022/04/22 12:26:00;;;;;;;10.82;7.35;;;;;;;16.84;50.21;101005.69;4837450;29;120074;-92
2022/04/22 12:28:29;;;;;;;14.05;7.45;;;;;;;17.15;49.94;101044.59;4808569;29;122510;-93
2022/04/22 12:31:00;;;;;;;15.77;8.10;;;;;;;17.19;50.38;101034.03;4807437;29;123136;-94
2022/04/22 12:33:30;;;;;;;14.57;7.72;;;;;;;17.27;49.99;101041.91;4814256;29;118566;-94
2022/04/22 12:36:05;;;;;;;12.65;7.35;;;;;;;16.90;50.79;100962.19;4808448;29;120135;-94
2022/04/22 12:38:37;;;;;;;17.27;7.60;;;;;;;17.37;50.40;101023.91;4813880;29;123582;-93
2022/04/22 12:41:22;;;;;;;14.68;7.60;;;;;;;17.46;49.99;101035.56;4815767;29;121650;-93
2022/04/22 12:44:00;;;;;;;16.33;8.13;;;;;;;17.46;49.73;101027.25;4832346;29;121909;-92
2022/04/22 13:01:58;;;;;;;15.18;8.00;;;;;;;17.82;49.58;101025.09;691771;23;120096;-93
2022/04/22 13:04:24;;;;;;;17.10;7.85;;;;;;;17.81;49.64;101004.16;4813186;29;121932;-95
2022/04/22 13:06:53;;;;;;;17.35;8.23;;;;;;;17.89;49.44;101004.44;4797810;29;122036;-91
2022/04/22 13:09:27;;;;;;;16.08;7.93;;;;;;;17.71;49.63;100942.50;4800571;29;119084;-94
2022/04/22 13:11:55;;;;;;;16.27;7.28;;;;;;;18.26;49.89;101015.56;4820648;29;120540;-92
2022/04/22 13:14:27;;;;;;;13.90;7.70;;;;;;;18.31;48.94;101010.03;4798516;29;121600;-92
2022/04/22 13:16:55;;;;;;;14.23;7.72;;;;;;;18.14;49.01;100984.19;4815366;29;119165;-92
2022/04/22 13:19:28;;;;;;;15.60;8.13;;;;;;;18.31;49.49;101000.94;4800986;29;121005;-92
2022/04/22 13:21:54;;;;;;;12.98;7.63;;;;;;;18.31;48.79;101000.94;4811830;29;119524;-92
2022/04/22 13:24:22;;;;;;;16.50;7.93;;;;;;;18.34;49.27;101008.28;4805182;29;118713;-93
2022/04/22 13:27:07;;;;;;;15.32;8.15;;;;;;;17.89;48.92;100940.63;4811159;29;120336;-92
2022/04/22 13:29:33;;;;;;;14.93;7.82;;;;;;;18.04;48.70;100955.88;4781233;29;119094;-95
2022/04/22 13:32:07;;;;;;;13.88;7.70;;;;;;;18.31;48.87;100998.94;4791995;29;122543;-95
2022/04/22 13:34:33;;;;;;;15.90;7.97;;;;;;;18.14;48.73;100975.84;4828897;29;120232;-94
2022/04/22 13:37:01;;;;;;;17.02;8.60;;;;;;;18.25;48.89;101005.72;4818213;29;118683;-94
2022/04/22 13:39:38;;;;;;;18.88;8.45;;;;;;;18.18;48.57;101003.38;4783206;29;120850;-95
2022/04/22 13:42:04;;;;;;;16.63;8.27;;;;;;;17.70;48.66;100937.47;4827274;29;119385;-95
2022/04/22 13:52:43;;;;;;;17.50;8.25;;;;;;;17.75;49.75;100992.25;4825709;29;121518;-94
2022/04/22 13:55:10;;;;;;;18.02;8.85;;;;;;;17.40;49.48;100948.03;4808212;29;122931;-94
2022/04/22 13:57:36;;;;;;;17.67;8.25;;;;;;;17.26;49.63;100918.41;4796031;29;118690;-95
2022/04/22 14:00:12;;;;;;;17.17;8.20;;;;;;;17.13;49.97;100907.72;4823561;29;119985;-94
2022/04/22 14:02:38;;;;;;;15.98;8.07;;;;;;;17.57;49.94;100957.28;4835177;29;121865;-95
2022/04/22 14:05:05;;;;;;;15.65;7.13;;;;;;;17.25;50.23;100908.59;4796948;29;119569;-94
2022/04/22 14:07:34;;;;;;;12.60;7.65;;;;;;;17.61;49.65;100959.81;4817051;29;119223;-93
2022/04/22 14:09:59;;;;;;;12.75;7.50;;;;;;;17.73;49.18;100973.28;4812594;29;121940;-94
2022/04/22 14:12:25;;;;;;;11.40;7.20;;;;;;;17.55;49.16;100943.13;4782990;29;120672;-93
2022/04/22 14:14:52;;;;;;;12.25;7.70;;;;;;;17.44;49.53;100926.41;4825736;29;119396;-94
2022/04/22 14:17:19;;;;;;;14.02;6.90;;;;;;;17.41;48.91;100939.22;4808363;29;120520;-94
2022/04/22 14:19:46;;;;;;;13.65;7.13;;;;;;;17.33;48.50;100901.38;4811079;29;121456;-95